ANACAPA ISLAND RAWS NEAR OXNARD 15SW HADS current weather conditions

sailwx.info

Wind from 283 at 11 knots gusting 19

Air temperature 16.7° C
Dewpoint 11.6° C

Last reported at 2017-Mar-22 23:23 UTC.
Time now 2017-Mar-23 00:23 UTC

Location: N 34°01' W 119°22'.
View on Google Maps.

See reports from other nearby stations

  
Tides and Currents Weather Stations Pressure Air Temp Water Temp Dewpoint Dewpoint Depression Visibility Wind Speed Wind Dir Waves Ship Positions
date/time (UTC)wind fromknots sea level pressurealtimeterstation pressurevisibilityair tempwater tempwave heightnotes
2017-Mar-22 23:23 283 11 gusting 19 16.7
2017-Mar-22 22:23 300 11 gusting 23 15.6
2017-Mar-22 21:23 288 6 gusting 13 17.2
2017-Mar-22 20:23 292 7 gusting 12 16.1
2017-Mar-22 19:23 301 6 gusting 11 16.7
2017-Mar-22 18:23 297 6 gusting 16 15.6
2017-Mar-22 17:23 305 9 gusting 17 15.0
2017-Mar-22 16:23 303 8 gusting 13 14.4
2017-Mar-22 15:23 306 5 gusting 12 12.8
2017-Mar-22 14:23 310 7 gusting 16 12.8
2017-Mar-22 13:23 301 7 gusting 13 12.8
2017-Mar-22 12:23 291 5 gusting 12 12.2
2017-Mar-22 11:23 304 6 gusting 12 12.8
2017-Mar-22 10:23 353 13.9
2017-Mar-22 09:23 055 1 gusting 6 13.9
2017-Mar-22 08:23 049 4 gusting 10 13.9
2017-Mar-22 07:23 052 6 gusting 13 13.9
2017-Mar-22 06:23 051 6 gusting 13 13.9
2017-Mar-22 05:23 048 9 gusting 14 13.9
2017-Mar-22 04:23 051 7 gusting 17 13.9
2017-Mar-22 03:23 052 10 gusting 17 13.9
2017-Mar-22 02:23 058 10 gusting 16 13.9
2017-Mar-22 01:23 052 11 gusting 18 13.9
2017-Mar-22 00:23 066 9 gusting 16 13.9
2017-Mar-21 23:23 057 10 gusting 17 13.9
2017-Mar-21 22:23 067 10 gusting 19 13.9
2017-Mar-21 21:23 052 12 gusting 21 13.9
2017-Mar-21 20:23 051 12 gusting 20 13.9
2017-Mar-21 19:23 049 12 gusting 20 14.4
2017-Mar-21 18:23 052 11 gusting 18 14.4
2017-Mar-21 17:23 052 13 gusting 18 14.4
2017-Mar-21 16:23 052 9 gusting 17 14.4
2017-Mar-21 15:23 053 6 gusting 15 15.0
2017-Mar-21 14:23 038 6 gusting 13 14.4
2017-Mar-21 13:23 085 6 gusting 14 13.9
2017-Mar-21 12:23 054 6 gusting 11 14.4
2017-Mar-21 11:23 056 4 gusting 9 14.4
2017-Mar-21 10:23 032 2 gusting 5 14.4
2017-Mar-21 09:23 107 2 gusting 4 14.4
2017-Mar-21 08:23 187 0 gusting 3 13.9
2017-Mar-21 07:23 224 1 gusting 4 14.4
2017-Mar-21 06:23 220 2 gusting 5 13.9
2017-Mar-21 05:23 215 1 gusting 6 14.4
2017-Mar-21 04:23 252 2 gusting 6 13.9
2017-Mar-21 03:23 254 3 gusting 6 13.9
2017-Mar-21 02:23 252 2 gusting 8 13.9
2017-Mar-21 01:23 246 6 gusting 11 14.4
2017-Mar-21 00:23 250 6 gusting 13 15.0